Time;durP1;ratioP1;P1;durP2;ratioP2;P2;SDS_P1;SDS_P2;PMS_P1;PMS_P2;Temp;Humidity;BMP_temperature;BMP_pressure;BME280_temperature;BME280_humidity;BME280_pressure;Samples;Min_cycle;Max_cycle;Signal;HPM_P1;HPM_P2
2021/04/20 00:00:07;;;;;;;18.37;5.90;;;;;;;3.51;83.19;101213.75;5036210;28;20199;-67
2021/04/20 00:02:32;;;;;;;16.13;6.67;;;;;;;3.43;83.74;101214.75;5034695;28;20283;-67
2021/04/20 00:04:58;;;;;;;16.53;6.77;;;;;;;3.39;83.80;101202.50;5035844;28;20178;-68
2021/04/20 00:07:23;;;;;;;10.97;5.93;;;;;;;3.40;84.24;101206.00;5036138;28;20176;-68
2021/04/20 00:09:48;;;;;;;17.77;6.20;;;;;;;3.44;84.21;101198.03;5035916;28;20207;-68
2021/04/20 00:12:14;;;;;;;19.33;6.97;;;;;;;3.47;84.10;101190.94;5035509;28;20177;-68
2021/04/20 00:14:39;;;;;;;16.17;6.30;;;;;;;3.41;84.14;101192.78;5034256;28;20176;-68
2021/04/20 00:17:06;;;;;;;19.13;6.70;;;;;;;3.46;84.29;101190.06;5035362;28;20179;-68
2021/04/20 00:19:31;;;;;;;15.47;6.87;;;;;;;3.40;84.36;101190.19;5035308;28;20203;-68
2021/04/20 00:21:56;;;;;;;13.27;5.70;;;;;;;3.43;84.19;101185.72;5035407;28;20544;-68
2021/04/20 00:24:21;;;;;;;12.50;5.97;;;;;;;3.43;84.03;101185.72;5034038;28;20204;-68
2021/04/20 00:26:47;;;;;;;14.80;5.97;;;;;;;3.47;83.63;101175.97;5035340;28;20180;-68
2021/04/20 00:29:12;;;;;;;10.70;5.67;;;;;;;3.50;84.16;101170.63;5035915;28;20171;-68
2021/04/20 00:31:37;;;;;;;15.70;6.37;;;;;;;3.50;84.36;101173.28;5034344;28;20172;-68
2021/04/20 00:34:03;;;;;;;25.50;6.83;;;;;;;3.51;84.70;101167.09;5017602;28;20186;-68
2021/04/20 00:36:28;;;;;;;17.07;6.07;;;;;;;3.45;84.62;101173.38;5035147;28;20169;-68
2021/04/20 00:38:53;;;;;;;18.10;6.03;;;;;;;3.40;85.31;101162.03;5035094;28;20603;-68
2021/04/20 00:41:19;;;;;;;13.53;5.73;;;;;;;3.41;85.14;101162.91;5034919;28;20561;-68
2021/04/20 00:43:46;;;;;;;13.60;6.60;;;;;;;3.33;84.92;101168.28;5035466;28;20208;-68
2021/04/20 00:46:14;;;;;;;18.90;5.57;;;;;;;3.27;84.38;101163.13;5035747;28;20206;-68
2021/04/20 00:48:40;;;;;;;14.73;5.53;;;;;;;3.22;84.49;101164.97;5035302;28;20183;-69
2021/04/20 00:51:06;;;;;;;18.40;6.20;;;;;;;3.15;85.65;101160.72;5034942;28;20204;-68
2021/04/20 00:53:31;;;;;;;15.23;6.17;;;;;;;3.11;85.47;101156.38;5034512;28;20242;-68
2021/04/20 00:55:57;;;;;;;16.07;6.30;;;;;;;3.05;86.10;101156.50;5034445;28;20255;-68
2021/04/20 00:58:22;;;;;;;14.43;5.70;;;;;;;2.99;86.15;101157.47;5033305;28;20540;-68
2021/04/20 01:00:49;;;;;;;12.33;6.13;;;;;;;2.91;86.57;101155.84;5033204;28;20203;-68
2021/04/20 01:03:15;;;;;;;16.20;6.83;;;;;;;2.90;86.75;101162.00;5033626;28;20207;-69
2021/04/20 01:05:40;;;;;;;17.47;6.33;;;;;;;2.84;86.50;101152.44;5034451;28;20172;-67
2021/04/20 01:08:17;;;;;;;17.23;7.33;;;;;;;2.91;87.03;101154.06;5033017;28;20643;-67
2021/04/20 01:10:45;;;;;;;14.67;6.40;;;;;;;2.87;87.17;101156.78;5034154;28;20198;-68
2021/04/20 01:13:11;;;;;;;15.40;6.53;;;;;;;2.99;87.18;101149.56;5033440;28;20295;-67
2021/04/20 01:15:38;;;;;;;15.80;6.43;;;;;;;2.99;87.25;101156.59;5032912;28;20182;-67
2021/04/20 01:18:15;;;;;;;18.30;7.07;;;;;;;3.07;87.07;101154.72;5032703;28;20198;-67
2021/04/20 01:20:42;;;;;;;13.10;7.03;;;;;;;3.05;87.32;101152.09;5034512;28;20202;-68
2021/04/20 01:23:10;;;;;;;16.73;6.00;;;;;;;2.94;87.40;101148.75;5032874;28;20192;-67
2021/04/20 01:25:36;;;;;;;12.60;6.50;;;;;;;2.84;86.94;101155.06;5034052;28;20263;-67
2021/04/20 01:28:01;;;;;;;15.10;6.80;;;;;;;2.77;87.33;101153.44;5033959;28;20255;-68
2021/04/20 01:30:27;;;;;;;12.07;6.03;;;;;;;2.77;87.38;101146.41;5032783;28;20195;-68
2021/04/20 01:32:52;;;;;;;18.37;6.73;;;;;;;2.78;87.89;101148.13;5032830;28;20627;-68
2021/04/20 01:35:17;;;;;;;15.57;6.93;;;;;;;2.82;87.30;101148.94;5033673;28;20172;-68
2021/04/20 01:37:43;;;;;;;13.70;6.50;;;;;;;2.87;86.92;101147.13;5033726;28;20183;-68
2021/04/20 01:40:10;;;;;;;20.60;6.80;;;;;;;2.65;87.51;101143.97;5033543;28;20197;-68
2021/04/20 01:42:35;;;;;;;13.20;6.30;;;;;;;2.57;88.23;101142.31;5033718;28;20204;-68
2021/04/20 01:45:05;;;;;;;16.50;7.40;;;;;;;2.51;88.52;101140.66;5032554;28;20515;-68
2021/04/20 01:47:31;;;;;;;15.27;7.70;;;;;;;2.50;88.42;101142.41;5033970;28;20230;-68
2021/04/20 01:49:56;;;;;;;22.63;7.10;;;;;;;2.53;88.99;101145.91;5034559;28;20607;-68
2021/04/20 01:52:22;;;;;;;21.03;7.57;;;;;;;2.66;88.62;101150.09;5033027;28;20187;-67
2021/04/20 01:54:47;;;;;;;19.87;7.10;;;;;;;2.62;89.21;101151.06;5033436;28;20585;-67
2021/04/20 01:57:14;;;;;;;15.27;6.87;;;;;;;2.51;88.93;101149.41;5033736;28;20593;-67
2021/04/20 01:59:39;;;;;;;15.60;6.87;;;;;;;2.42;88.68;101156.59;5032232;28;20234;-67
2021/04/20 02:02:05;;;;;;;14.27;6.53;;;;;;;2.35;88.27;101152.31;5032162;28;20221;-68
2021/04/20 02:04:30;;;;;;;17.40;6.90;;;;;;;2.48;88.96;101153.88;5032199;28;20203;-67
2021/04/20 02:06:56;;;;;;;15.20;6.80;;;;;;;2.51;89.43;101162.59;5032427;28;20210;-67
2021/04/20 02:09:21;;;;;;;25.47;8.20;;;;;;;2.59;89.72;101157.22;5031922;28;20179;-67
2021/04/20 02:11:46;;;;;;;18.20;6.70;;;;;;;2.67;89.64;101152.72;5033304;28;20179;-67
2021/04/20 02:14:12;;;;;;;20.53;7.83;;;;;;;2.66;89.38;101150.97;5031799;28;20235;-67
2021/04/20 02:16:37;;;;;;;18.03;8.00;;;;;;;2.67;89.87;101147.44;5032230;28;20183;-68
2021/04/20 02:19:05;;;;;;;19.20;7.20;;;;;;;2.62;89.23;101156.31;5032471;28;20187;-68
2021/04/20 02:21:32;;;;;;;23.60;7.80;;;;;;;2.64;89.88;101150.13;5033243;28;20175;-68
2021/04/20 02:23:58;;;;;;;15.80;7.43;;;;;;;2.67;89.85;101144.81;5033694;28;20553;-67
2021/04/20 02:26:37;;;;;;;22.30;6.83;;;;;;;2.69;89.33;101147.41;5032159;28;20171;-67
2021/04/20 02:29:04;;;;;;;20.10;6.93;;;;;;;2.73;89.33;101147.34;5016772;28;20556;-67
2021/04/20 02:31:33;;;;;;;17.33;6.73;;;;;;;2.74;89.49;101145.56;5033399;28;20182;-67
2021/04/20 02:33:58;;;;;;;19.43;6.83;;;;;;;2.77;89.39;101138.50;5032169;28;20232;-67
2021/04/20 02:36:24;;;;;;;19.23;6.93;;;;;;;2.78;89.31;101144.63;5031849;28;20179;-67
2021/04/20 02:38:50;;;;;;;16.53;6.43;;;;;;;2.78;89.27;101148.13;5031771;28;20179;-68
2021/04/20 02:41:17;;;;;;;17.50;7.17;;;;;;;2.72;89.23;101148.25;5033783;28;20274;-68
2021/04/20 02:43:44;;;;;;;17.53;7.93;;;;;;;2.76;89.53;101141.16;5033063;28;20207;-68
2021/04/20 02:46:10;;;;;;;19.30;7.10;;;;;;;2.79;89.29;101149.00;5015283;28;20186;-68
2021/04/20 02:48:35;;;;;;;19.03;7.53;;;;;;;2.78;89.31;101142.88;5031891;28;20175;-68
2021/04/20 02:51:00;;;;;;;17.17;7.00;;;;;;;2.69;88.98;101150.06;5034704;28;20237;-68
2021/04/20 02:53:26;;;;;;;15.27;7.03;;;;;;;2.65;89.37;101153.63;5035790;28;20172;-67
2021/04/20 02:55:52;;;;;;;17.93;6.83;;;;;;;2.61;89.96;101139.63;5037060;28;20175;-67
2021/04/20 02:58:21;;;;;;;18.90;7.17;;;;;;;2.68;89.17;101156.22;5035646;28;20175;-68
2021/04/20 03:01:03;;;;;;;16.50;6.63;;;;;;;2.50;89.62;101155.59;5035689;28;20568;-67
2021/04/20 03:03:29;;;;;;;20.40;6.90;;;;;;;2.66;90.22;101143.06;5036727;28;20560;-67
2021/04/20 03:05:56;;;;;;;14.13;6.37;;;;;;;2.68;90.24;101150.94;5037128;28;20235;-68
2021/04/20 03:08:21;;;;;;;20.97;7.10;;;;;;;2.75;89.91;101153.47;5035197;28;20187;-67
2021/04/20 03:10:47;;;;;;;17.10;7.30;;;;;;;2.74;89.80;101153.47;5036220;28;20195;-67
2021/04/20 03:13:13;;;;;;;14.33;6.07;;;;;;;2.60;89.43;101156.34;5035161;28;20167;-68
2021/04/20 03:15:38;;;;;;;14.40;6.43;;;;;;;2.14;87.94;101156.09;5036585;28;20187;-68
2021/04/20 03:18:04;;;;;;;13.90;6.43;;;;;;;2.49;89.12;101155.59;5036319;28;20639;-67
2021/04/20 03:20:29;;;;;;;18.10;6.93;;;;;;;2.46;89.82;101151.25;5035131;28;20194;-68
2021/04/20 03:22:56;;;;;;;12.37;6.70;;;;;;;2.38;90.07;101152.28;5035061;28;20215;-68
2021/04/20 03:25:26;;;;;;;23.20;8.37;;;;;;;2.28;90.63;101153.31;5036267;28;20586;-68
2021/04/20 03:27:54;;;;;;;24.33;7.60;;;;;;;2.27;90.69;101154.19;5036505;28;20632;-67
2021/04/20 03:30:23;;;;;;;22.87;7.70;;;;;;;2.35;91.22;101153.19;5036334;28;20203;-67
2021/04/20 03:32:54;;;;;;;21.97;7.37;;;;;;;2.38;90.75;101158.41;5036065;28;20635;-68
2021/04/20 03:35:27;;;;;;;16.80;6.87;;;;;;;2.22;89.43;101159.50;5035506;28;20168;-67
2021/04/20 03:37:58;;;;;;;16.43;7.13;;;;;;;2.34;90.39;101158.47;5036854;28;20329;-68
2021/04/20 03:40:24;;;;;;;18.80;7.30;;;;;;;2.41;90.29;101152.22;5037526;28;20191;-69
2021/04/20 03:42:55;;;;;;;19.33;7.90;;;;;;;2.38;90.86;101152.28;5019701;28;20206;-69
2021/04/20 03:45:23;;;;;;;14.43;7.60;;;;;;;2.31;91.10;101153.25;5034679;28;20206;-67
2021/04/20 03:47:54;;;;;;;27.87;7.47;;;;;;;2.26;91.32;101148.06;5034567;28;20175;-68
2021/04/20 03:50:24;;;;;;;21.27;8.27;;;;;;;2.23;91.53;101136.66;5034518;28;20209;-66
2021/04/20 03:52:54;;;;;;;15.23;7.47;;;;;;;2.20;91.99;101143.72;5034526;28;20172;-67
2021/04/20 03:55:21;;;;;;;20.33;8.90;;;;;;;2.21;91.94;101147.22;5034851;28;20563;-67
2021/04/20 03:57:48;;;;;;;21.20;7.93;;;;;;;2.22;91.81;101145.47;5017877;28;20176;-67
2021/04/20 04:00:15;;;;;;;15.37;7.97;;;;;;;2.22;91.93;101148.09;5034073;28;20191;-69
2021/04/20 04:02:42;;;;;;;23.67;8.40;;;;;;;2.17;92.15;101143.75;5035627;28;20203;-67
2021/04/20 04:05:11;;;;;;;17.93;7.80;;;;;;;2.24;92.08;101149.84;5034961;28;20185;-68
2021/04/20 04:07:37;;;;;;;16.53;7.87;;;;;;;2.16;92.04;101146.41;5035986;28;20171;-69
2021/04/20 04:10:03;;;;;;;17.40;8.03;;;;;;;2.18;92.24;101156.03;5034407;28;20192;-67
2021/04/20 04:12:33;;;;;;;21.17;8.80;;;;;;;2.14;92.19;101149.06;5034042;28;20540;-67
2021/04/20 04:14:59;;;;;;;16.87;8.90;;;;;;;2.12;92.43;101150.84;5034148;28;20171;-67
2021/04/20 04:17:25;;;;;;;16.90;7.70;;;;;;;2.03;92.19;101150.09;5034109;28;20182;-67
2021/04/20 04:19:53;;;;;;;19.03;8.53;;;;;;;2.05;92.11;101146.56;5033926;28;20663;-67
2021/04/20 04:22:19;;;;;;;20.60;8.30;;;;;;;1.98;92.47;101157.19;5034033;28;20174;-67
2021/04/20 04:24:51;;;;;;;26.47;9.67;;;;;;;2.16;92.72;101151.69;5034048;28;20182;-67
2021/04/20 04:27:18;;;;;;;20.10;9.20;;;;;;;2.15;92.40;101158.72;5035043;28;20170;-68
2021/04/20 04:29:46;;;;;;;19.50;9.53;;;;;;;2.11;92.44;101149.13;5034166;28;20200;-67
2021/04/20 04:32:12;;;;;;;17.77;8.80;;;;;;;2.08;92.59;101150.91;5033988;28;20166;-68
2021/04/20 04:34:39;;;;;;;16.70;7.80;;;;;;;1.96;92.68;101154.59;5033890;28;20214;-67
2021/04/20 04:37:04;;;;;;;17.30;8.83;;;;;;;1.92;92.94;101157.28;5033675;28;20178;-67
2021/04/20 04:39:29;;;;;;;22.33;8.87;;;;;;;2.05;92.79;101157.09;5016856;28;20240;-67
2021/04/20 04:41:55;;;;;;;17.57;8.30;;;;;;;2.16;92.60;101154.31;5033611;28;20186;-67
2021/04/20 04:44:20;;;;;;;22.67;8.60;;;;;;;2.29;92.42;101147.13;5034992;28;20611;-67
2021/04/20 04:46:46;;;;;;;23.70;8.67;;;;;;;2.44;91.94;101157.44;5034477;28;20182;-67
2021/04/20 04:49:12;;;;;;;17.77;7.67;;;;;;;2.53;91.43;101148.53;5034314;28;20556;-67
2021/04/20 04:51:38;;;;;;;18.90;8.43;;;;;;;2.56;90.48;101156.38;5033537;28;20254;-67
2021/04/20 04:54:05;;;;;;;16.80;7.50;;;;;;;2.38;90.37;101152.28;5033264;28;20180;-67
2021/04/20 04:56:32;;;;;;;16.83;7.80;;;;;;;2.41;90.83;101149.59;5034353;28;20709;-66
2021/04/20 04:58:59;;;;;;;17.63;7.50;;;;;;;2.62;90.07;101145.78;5034417;28;20199;-67
2021/04/20 05:01:25;;;;;;;15.37;6.83;;;;;;;2.69;90.42;101148.28;5033123;28;20202;-67
2021/04/20 05:03:51;;;;;;;21.63;7.17;;;;;;;2.65;90.09;101141.31;5034262;28;20196;-67
2021/04/20 05:06:17;;;;;;;17.30;7.40;;;;;;;2.60;90.04;101147.53;5034680;28;20184;-67
2021/04/20 05:08:42;;;;;;;16.80;7.67;;;;;;;2.72;89.92;101147.38;5016333;28;20548;-67
2021/04/20 05:11:07;;;;;;;21.43;8.47;;;;;;;2.86;89.43;101152.41;5034028;28;20283;-68
2021/04/20 05:13:34;;;;;;;19.63;7.70;;;;;;;2.69;88.75;101150.94;5032591;28;20187;-67
2021/04/20 05:16:06;;;;;;;16.50;7.77;;;;;;;2.70;89.00;101150.03;5016577;28;20227;-67
2021/04/20 05:18:33;;;;;;;16.47;6.90;;;;;;;2.76;87.85;101146.41;5033900;28;20223;-67
2021/04/20 05:20:59;;;;;;;15.27;6.97;;;;;;;2.81;88.17;101147.22;5033783;28;20699;-68
2021/04/20 05:23:24;;;;;;;20.23;7.10;;;;;;;2.71;88.64;101146.50;5032921;28;20271;-68
2021/04/20 05:25:51;;;;;;;12.47;7.30;;;;;;;2.81;87.98;101140.19;5032688;28;20234;-67
2021/04/20 05:28:16;;;;;;;15.73;7.93;;;;;;;2.81;88.41;101148.09;5034530;28;20231;-67
2021/04/20 05:30:42;;;;;;;16.60;7.30;;;;;;;2.90;86.80;101149.69;5034147;28;20262;-67
2021/04/20 05:33:07;;;;;;;20.67;8.00;;;;;;;2.64;88.04;101152.75;5032942;28;20176;-68
2021/04/20 05:35:32;;;;;;;15.60;7.83;;;;;;;2.60;88.17;101148.44;5032663;28;20222;-68
2021/04/20 05:37:58;;;;;;;18.03;7.47;;;;;;;2.91;88.14;101158.47;5033725;28;20179;-67
2021/04/20 05:40:26;;;;;;;14.47;7.70;;;;;;;3.04;87.45;101155.63;5033492;28;20571;-67
2021/04/20 05:42:53;;;;;;;18.37;6.67;;;;;;;3.35;86.45;101153.34;5032106;28;20611;-68
2021/04/20 05:45:18;;;;;;;14.90;7.47;;;;;;;3.49;85.70;101154.84;5032010;28;20184;-69
2021/04/20 05:47:46;;;;;;;12.80;6.47;;;;;;;3.72;85.44;101157.91;5033820;28;20230;-67
2021/04/20 05:50:33;;;;;;;20.40;6.97;;;;;;;3.79;84.25;101161.31;5053529;23;20224;-71
2021/04/20 05:52:59;;;;;;;11.63;5.97;;;;;;;4.13;82.56;101161.47;5033486;28;20329;-71
2021/04/20 05:55:26;;;;;;;13.53;6.77;;;;;;;4.16;81.69;101157.00;5015592;28;20207;-70
2021/04/20 05:57:52;;;;;;;15.47;7.20;;;;;;;4.22;82.40;101156.88;5031895;28;20176;-70
2021/04/20 06:00:20;;;;;;;18.47;7.63;;;;;;;3.98;84.62;101152.09;5033013;28;20310;-70
2021/04/20 06:02:47;;;;;;;16.83;6.77;;;;;;;4.19;84.92;101150.78;5033144;28;20200;-71
2021/04/20 06:05:14;;;;;;;15.83;7.00;;;;;;;4.33;84.91;101151.34;5031780;28;20241;-70
2021/04/20 06:07:43;;;;;;;16.30;6.70;;;;;;;4.64;84.66;101154.16;5015321;28;20658;-71
2021/04/20 06:10:09;;;;;;;16.93;7.20;;;;;;;4.87;84.61;101150.97;5015008;28;20191;-71
2021/04/20 06:12:35;;;;;;;15.93;6.63;;;;;;;5.16;83.82;101150.22;5032822;28;20637;-71
2021/04/20 06:15:01;;;;;;;17.13;7.37;;;;;;;5.13;83.35;101151.19;5031616;28;20168;-71
2021/04/20 06:17:27;;;;;;;15.83;6.23;;;;;;;5.38;82.87;101153.19;5031586;28;20176;-70
2021/04/20 06:19:52;;;;;;;23.30;7.20;;;;;;;5.60;81.82;101151.72;5031781;28;20195;-72
2021/04/20 06:22:18;;;;;;;16.87;7.10;;;;;;;5.70;81.28;101160.28;5033268;28;20270;-70
2021/04/20 06:24:45;;;;;;;11.70;6.03;;;;;;;5.83;80.78;101159.88;5032516;28;20289;-70
2021/04/20 06:27:10;;;;;;;17.10;6.57;;;;;;;5.71;81.29;101164.66;5032873;28;20172;-70
2021/04/20 06:29:36;;;;;;;15.37;6.53;;;;;;;5.91;80.18;101154.41;5031510;28;20548;-70
2021/04/20 06:32:02;;;;;;;11.33;5.60;;;;;;;5.91;79.48;101160.56;5032858;28;20176;-70
2021/04/20 06:34:29;;;;;;;15.03;6.30;;;;;;;5.92;80.51;101159.66;5031768;28;20663;-70
2021/04/20 06:36:54;;;;;;;16.37;6.47;;;;;;;5.81;81.29;101153.75;5032008;28;20176;-70
2021/04/20 06:39:20;;;;;;;15.50;6.33;;;;;;;6.09;79.82;101147.72;5031544;28;20199;-70
2021/04/20 06:41:52;;;;;;;12.73;6.00;;;;;;;6.15;80.13;101147.53;5031516;28;20196;-70
2021/04/20 06:44:36;;;;;;;19.17;7.13;;;;;;;6.30;79.84;101141.75;5015127;28;20184;-70
2021/04/20 06:47:08;;;;;;;11.37;5.57;;;;;;;6.58;77.93;101141.78;5015550;28;20189;-69
2021/04/20 06:49:44;;;;;;;14.93;5.70;;;;;;;6.60;77.53;101145.25;5033009;28;20192;-69
2021/04/20 06:52:23;;;;;;;12.47;5.63;;;;;;;6.66;77.54;101142.41;5031917;28;20168;-70
2021/04/20 06:55:13;;;;;;;15.33;5.43;;;;;;;6.62;77.51;101143.41;5031673;28;20629;-70
2021/04/20 06:57:41;;;;;;;13.50;6.17;;;;;;;6.80;77.33;101145.50;5024938;28;20232;-71
2021/04/20 07:00:24;;;;;;;12.23;6.00;;;;;;;7.01;76.78;101140.38;5031783;28;20208;-72
2021/04/20 07:02:56;;;;;;;11.83;4.97;;;;;;;7.14;76.17;101137.28;5031598;28;20239;-70
2021/04/20 07:05:35;;;;;;;12.47;5.60;;;;;;;7.24;74.54;101131.66;5031583;28;20156;-71
2021/04/20 07:08:18;;;;;;;11.23;5.63;;;;;;;7.15;75.09;101128.41;5015044;28;20167;-71
2021/04/20 07:10:44;;;;;;;12.53;5.87;;;;;;;7.33;74.49;101132.19;5033311;28;20283;-70
2021/04/20 07:13:12;;;;;;;16.17;6.53;;;;;;;7.49;73.93;101135.19;5015694;28;20188;-71
2021/04/20 07:15:40;;;;;;;14.87;5.80;;;;;;;7.45;73.92;101128.28;5031841;28;20183;-71
2021/04/20 07:18:05;;;;;;;18.17;5.80;;;;;;;7.46;73.20;101128.22;5031545;28;20721;-72
2021/04/20 07:20:38;;;;;;;15.40;6.00;;;;;;;7.49;72.67;101121.91;5032631;28;20203;-70
2021/04/20 07:23:35;;;;;;;14.43;5.87;;;;;;;7.83;72.58;101127.75;5031734;28;20238;-71
2021/04/20 07:26:34;;;;;;;12.93;5.77;;;;;;;7.95;71.03;101122.91;5031574;28;20219;-71
2021/04/20 07:29:10;;;;;;;13.27;5.90;;;;;;;7.88;71.53;101113.44;5014815;28;20180;-72
2021/04/20 07:31:57;;;;;;;14.27;5.60;;;;;;;8.15;71.17;101113.22;5031269;28;20200;-72
2021/04/20 07:34:28;;;;;;;9.73;5.83;;;;;;;8.16;68.82;101114.09;5032821;28;20176;-72
2021/04/20 07:37:00;;;;;;;16.73;5.47;;;;;;;8.09;68.64;101108.16;5033975;28;20207;-72
2021/04/20 07:39:32;;;;;;;10.57;5.23;;;;;;;8.25;68.68;101116.41;5034969;28;20506;-72
2021/04/20 07:42:16;;;;;;;15.63;5.83;;;;;;;8.40;69.84;101113.19;5034835;28;20152;-71
2021/04/20 07:44:52;;;;;;;13.93;6.37;;;;;;;8.47;69.61;101108.47;5036053;28;20271;-74
2021/04/20 07:47:21;;;;;;;10.07;5.30;;;;;;;8.67;69.21;101111.22;5035848;28;20534;-71
2021/04/20 07:50:03;;;;;;;10.97;5.37;;;;;;;8.87;68.56;101112.19;5034386;28;20238;-70
2021/04/20 07:52:34;;;;;;;13.57;7.00;;;;;;;8.74;69.41;101104.72;5018010;28;20183;-70
2021/04/20 07:55:14;;;;;;;10.80;5.53;;;;;;;8.89;69.42;101110.31;5017940;28;20169;-71
2021/04/20 07:57:40;;;;;;;13.97;5.63;;;;;;;9.12;67.59;101117.34;5035874;28;20160;-71
2021/04/20 08:00:06;;;;;;;14.47;5.57;;;;;;;9.04;67.97;101107.91;5035572;28;20246;-71
2021/04/20 08:02:55;;;;;;;13.63;5.70;;;;;;;9.20;66.72;101104.56;5035886;28;20176;-71
2021/04/20 08:05:25;;;;;;;11.67;5.40;;;;;;;8.99;66.67;101112.56;5034737;28;20176;-71
2021/04/20 08:07:54;;;;;;;15.73;6.03;;;;;;;9.00;67.15;101095.66;5035626;28;20157;-71
2021/04/20 08:10:20;;;;;;;15.33;5.53;;;;;;;8.98;66.86;101097.53;5035253;28;20192;-71
2021/04/20 08:12:53;;;;;;;13.20;5.60;;;;;;;8.91;67.28;101097.81;5034538;28;20183;-70
2021/04/20 08:15:25;;;;;;;11.10;6.07;;;;;;;9.12;67.09;101101.38;5017609;28;20183;-71
2021/04/20 08:18:26;;;;;;;16.37;6.43;;;;;;;9.33;65.74;101089.81;5035839;28;20160;-71
2021/04/20 08:20:52;;;;;;;14.17;5.47;;;;;;;9.33;65.88;101092.47;5002751;28;20212;-72
2021/04/20 08:23:17;;;;;;;13.07;5.80;;;;;;;9.50;65.12;101095.25;5034621;28;20189;-71
2021/04/20 08:25:50;;;;;;;11.20;5.67;;;;;;;9.52;65.04;101089.84;5017220;28;20674;-72
2021/04/20 08:28:32;;;;;;;10.00;4.83;;;;;;;10.01;64.85;101080.50;5034098;28;20593;-71
2021/04/20 08:31:03;;;;;;;12.47;5.67;;;;;;;10.16;63.16;101077.13;5033606;28;20192;-72
2021/04/20 08:33:32;;;;;;;10.40;5.00;;;;;;;10.24;61.85;101079.44;5033998;28;20153;-72
2021/04/20 08:35:59;;;;;;;11.37;5.20;;;;;;;10.20;62.19;101073.41;5033979;28;20540;-72
2021/04/20 08:38:48;;;;;;;11.50;5.50;;;;;;;10.06;61.31;101074.97;5034307;28;20274;-71
2021/04/20 08:41:20;;;;;;;13.10;5.03;;;;;;;10.06;62.04;101070.50;5034694;28;20283;-71
2021/04/20 08:44:14;;;;;;;10.30;4.80;;;;;;;10.12;61.16;101070.22;5033642;28;20679;-69
2021/04/20 08:47:05;;;;;;;10.97;5.00;;;;;;;10.13;61.63;101065.72;5033019;28;20160;-71
2021/04/20 08:49:48;;;;;;;11.33;4.97;;;;;;;10.41;60.05;101076.00;5033881;28;20666;-71
2021/04/20 08:52:27;;;;;;;12.70;4.27;;;;;;;10.78;58.33;101062.56;5035181;28;20157;-72
2021/04/20 08:55:00;;;;;;;10.97;4.70;;;;;;;10.59;58.03;101064.41;5033557;28;20276;-71
2021/04/20 08:57:33;;;;;;;14.90;4.87;;;;;;;10.80;57.05;101062.50;5033373;28;20218;-71
2021/04/20 09:00:44;;;;;;;11.30;4.07;;;;;;;10.77;56.74;101071.50;5033303;28;20212;-72
2021/04/20 09:03:22;;;;;;;9.77;4.37;;;;;;;11.07;56.18;101062.88;5031522;28;20204;-70
2021/04/20 09:05:50;;;;;;;9.07;4.10;;;;;;;11.28;55.95;101054.63;5033619;28;20160;-71
2021/04/20 09:08:23;;;;;;;10.80;4.23;;;;;;;11.57;54.53;101053.09;5034779;28;20184;-70
2021/04/20 09:11:09;;;;;;;6.30;3.27;;;;;;;11.86;53.78;101054.22;5016639;28;20188;-71
2021/04/20 09:13:49;;;;;;;9.70;4.73;;;;;;;11.66;54.82;101054.41;5033373;28;20156;-72
2021/04/20 09:16:19;;;;;;;7.60;4.57;;;;;;;11.94;55.19;101060.97;5034793;28;20616;-71
2021/04/20 09:18:45;;;;;;;10.00;4.37;;;;;;;12.26;54.03;101059.16;5033347;28;20242;-71
2021/04/20 09:21:21;;;;;;;10.33;4.30;;;;;;;11.93;53.18;101054.75;5034229;28;20271;-71
2021/04/20 09:23:49;;;;;;;12.47;4.60;;;;;;;11.83;52.56;101053.50;5032970;28;20196;-72
2021/04/20 09:26:30;;;;;;;8.83;4.17;;;;;;;11.70;53.68;101049.75;5032967;28;20180;-74
2021/04/20 09:29:00;;;;;;;10.27;4.40;;;;;;;12.25;52.56;101052.06;5033277;28;20167;-71
2021/04/20 09:31:37;;;;;;;10.07;4.97;;;;;;;12.61;50.51;101049.97;5016238;28;20306;-72
2021/04/20 09:34:03;;;;;;;9.93;3.73;;;;;;;12.18;50.99;101046.22;5034226;28;20213;-72
2021/04/20 09:36:30;;;;;;;8.87;3.67;;;;;;;12.20;49.80;101049.66;5032887;28;20183;-71
2021/04/20 09:38:57;;;;;;;10.03;3.97;;;;;;;12.46;49.74;101040.16;5016253;28;20187;-70
2021/04/20 09:41:36;;;;;;;7.97;3.90;;;;;;;12.66;50.15;101055.97;5016099;28;20196;-71
2021/04/20 09:44:24;;;;;;;10.23;4.00;;;;;;;13.03;49.46;101057.34;5032509;28;20191;-69
2021/04/20 09:46:49;;;;;;;10.30;3.73;;;;;;;12.73;46.46;101043.06;5015879;28;20191;-70
2021/04/20 09:49:19;;;;;;;6.30;3.13;;;;;;;12.78;46.64;101047.19;5034216;28;20172;-72
2021/04/20 09:51:52;;;;;;;7.77;3.20;;;;;;;13.28;46.34;101048.69;5032606;28;20208;-71
2021/04/20 09:54:21;;;;;;;8.27;3.80;;;;;;;13.36;46.11;101040.19;5032290;28;20165;-73
2021/04/20 09:56:51;;;;;;;12.00;3.40;;;;;;;13.32;45.80;101046.69;5032404;28;20183;-70
2021/04/20 09:59:18;;;;;;;9.60;3.50;;;;;;;13.42;45.34;101040.69;5032276;28;20644;-70
2021/04/20 10:02:21;;;;;;;7.80;3.27;;;;;;;13.68;45.56;101035.53;5032571;28;20687;-70
2021/04/20 10:05:11;;;;;;;10.83;3.70;;;;;;;13.86;45.59;101033.50;5031832;28;20575;-72
2021/04/20 10:08:04;;;;;;;5.53;3.23;;;;;;;14.30;43.48;101034.19;5033778;28;20165;-71
2021/04/20 10:10:57;;;;;;;6.17;2.80;;;;;;;14.31;42.99;101035.06;5033573;28;20195;-71
2021/04/20 10:13:29;;;;;;;10.53;3.83;;;;;;;13.70;45.82;101028.22;5032035;28;20533;-72
2021/04/20 10:16:04;;;;;;;5.23;3.40;;;;;;;14.16;45.08;101028.00;5032002;28;20187;-71
2021/04/20 10:19:03;;;;;;;9.07;4.00;;;;;;;14.80;43.53;101029.16;5032577;28;20160;-71
2021/04/20 10:22:00;;;;;;;10.33;4.27;;;;;;;14.52;45.11;101031.00;5032459;28;20552;-72
2021/04/20 10:24:26;;;;;;;12.90;4.07;;;;;;;14.97;43.25;101026.19;5032173;28;20193;-71
2021/04/20 10:27:05;;;;;;;6.73;3.40;;;;;;;14.39;43.42;101019.31;5033454;28;20176;-71
2021/04/20 10:29:35;;;;;;;9.53;3.53;;;;;;;15.13;43.03;101018.78;5035060;28;20167;-71
2021/04/20 10:32:07;;;;;;;10.57;4.07;;;;;;;14.72;43.54;101021.59;5036229;28;20262;-72
2021/04/20 10:34:35;;;;;;;6.80;3.50;;;;;;;15.36;42.18;101019.91;5037453;28;20330;-72
2021/04/20 10:37:00;;;;;;;6.77;3.37;;;;;;;15.64;39.86;101021.56;5038831;28;20179;-72
2021/04/20 10:39:27;;;;;;;6.60;3.47;;;;;;;15.92;40.39;101012.34;5038774;28;20263;-70
2021/04/20 10:41:53;;;;;;;8.33;3.40;;;;;;;15.71;39.30;101003.13;5039387;28;20556;-72
2021/04/20 10:44:21;;;;;;;11.03;2.87;;;;;;;16.43;37.69;101012.19;5037648;28;20200;-71
2021/04/20 10:46:52;;;;;;;7.77;3.20;;;;;;;16.49;36.51;101015.28;5039130;28;20176;-72
2021/04/20 10:49:17;;;;;;;4.90;2.60;;;;;;;16.89;36.58;101020.41;5038402;28;20220;-71
2021/04/20 10:51:44;;;;;;;6.13;3.03;;;;;;;16.46;36.31;101007.44;5041880;28;20246;-71
2021/04/20 10:54:11;;;;;;;6.77;2.97;;;;;;;15.82;39.38;100998.69;5043271;28;20609;-72
2021/04/20 10:56:37;;;;;;;7.07;2.70;;;;;;;16.23;36.67;101005.56;5039885;28;20172;-71
2021/04/20 10:59:06;;;;;;;16.00;3.53;;;;;;;16.53;38.91;100994.38;5040657;28;20227;-72
2021/04/20 11:01:32;;;;;;;5.03;3.10;;;;;;;17.89;33.44;100991.88;5041005;28;20255;-71
2021/04/20 11:03:59;;;;;;;6.37;3.03;;;;;;;19.69;30.37;100993.66;5038857;28;20239;-73
2021/04/20 11:06:44;;;;;;;7.20;3.00;;;;;;;22.00;26.11;100987.38;5033235;28;20168;-72
2021/04/20 11:09:09;;;;;;;5.97;2.20;;;;;;;22.86;24.87;100990.56;5031342;28;20172;-71
2021/04/20 11:11:35;;;;;;;6.03;2.70;;;;;;;23.01;25.37;100999.84;5016836;28;20188;-71
2021/04/20 11:14:01;;;;;;;11.50;3.00;;;;;;;24.80;23.90;100992.56;5036722;28;20164;-72
2021/04/20 11:16:36;;;;;;;5.63;3.00;;;;;;;26.29;19.73;100982.88;5035300;28;20172;-72
2021/04/20 11:19:04;;;;;;;3.07;2.17;;;;;;;24.31;20.87;100981.56;5035343;28;20152;-71
2021/04/20 11:21:34;;;;;;;6.77;3.30;;;;;;;24.93;22.02;100990.19;5018261;28;20195;-71
2021/04/20 11:24:04;;;;;;;5.57;3.03;;;;;;;26.87;19.72;100977.91;5035345;28;20184;-71
2021/04/20 11:26:37;;;;;;;3.87;1.90;;;;;;;23.67;22.99;100982.97;5034972;28;20179;-72
2021/04/20 11:29:08;;;;;;;5.47;2.30;;;;;;;20.64;27.23;100969.69;5018314;28;20506;-71
2021/04/20 11:31:40;;;;;;;8.60;2.90;;;;;;;22.24;24.97;100964.22;5034890;28;20195;-72
2021/04/20 11:34:25;;;;;;;6.63;2.77;;;;;;;25.86;21.09;100970.59;5034860;28;20259;-71
2021/04/20 11:37:05;;;;;;;6.37;2.70;;;;;;;25.77;19.83;100971.66;5036006;28;20168;-72